Time;durP1;ratioP1;P1;durP2;ratioP2;P2;SDS_P1;SDS_P2;PMS_P1;PMS_P2;Temp;Humidity;BMP_temperature;BMP_pressure;BME280_temperature;BME280_humidity;BME280_pressure;Samples;Min_cycle;Max_cycle;Signal;HPM_P1;HPM_P2
2022/01/20 00:01:44;;;;;;;21.55;4.47;;;4.30;86.10;;;;;;5053075;28;20057;-86
2022/01/20 00:04:43;;;;;;;23.08;5.13;;;4.30;86.10;;;;;;5049636;28;20521;-86
2022/01/20 00:23:07;;;;;;;16.40;4.78;;;4.20;86.00;;;;;;5051980;28;20075;-86
2022/01/20 00:26:17;;;;;;;17.70;4.38;;;4.00;86.00;;;;;;5038938;28;20063;-87
2022/01/20 00:28:48;;;;;;;17.27;3.75;;;4.00;86.00;;;;;;5035479;28;20045;-86
2022/01/20 00:34:18;;;;;;;14.95;3.95;;;3.90;86.00;;;;;;5050158;28;20529;-86
2022/01/20 00:39:31;;;;;;;13.75;3.75;;;3.90;86.00;;;;;;5039406;28;20544;-87
2022/01/20 00:41:58;;;;;;;13.80;3.45;;;3.90;86.00;;;;;;5022876;28;20398;-86
2022/01/20 00:44:26;;;;;;;16.67;4.18;;;3.80;85.90;;;;;;5046273;28;20043;-86
2022/01/20 00:46:53;;;;;;;15.80;4.07;;;3.80;85.90;;;;;;5033197;28;20041;-85
2022/01/20 00:49:22;;;;;;;11.57;3.15;;;3.80;85.90;;;;;;5035155;28;20053;-86
2022/01/20 00:51:49;;;;;;;18.42;4.03;;;3.70;85.90;;;;;;5052558;28;20049;-86
2022/01/20 00:54:19;;;;;;;20.30;3.47;;;3.70;85.90;;;;;;5051123;28;20533;-86
2022/01/20 00:56:47;;;;;;;20.02;4.43;;;3.70;85.90;;;;;;5051016;28;20527;-86
2022/01/20 00:59:14;;;;;;;20.25;4.20;;;3.70;86.00;;;;;;5051198;28;20047;-86
2022/01/20 01:01:42;;;;;;;17.50;3.55;;;3.70;85.90;;;;;;5050111;28;20052;-86
2022/01/20 01:04:09;;;;;;;18.30;3.70;;;3.70;86.00;;;;;;5052510;28;20059;-86
2022/01/20 01:09:05;;;;;;;16.00;3.90;;;3.60;86.00;;;;;;5050760;28;20045;-86
2022/01/20 01:11:34;;;;;;;18.92;3.63;;;3.60;85.90;;;;;;5048281;28;20063;-86
2022/01/20 01:14:03;;;;;;;23.95;3.70;;;3.60;85.90;;;;;;5051070;28;20049;-87
2022/01/20 01:22:21;;;;;;;14.70;3.13;;;3.50;85.90;;;;;;5051907;28;20049;-86
2022/01/20 01:24:51;;;;;;;12.73;3.08;;;3.50;85.90;;;;;;5051782;28;20547;-86
2022/01/20 01:27:21;;;;;;;17.08;3.40;;;3.50;85.90;;;;;;5050492;28;20421;-86
2022/01/20 01:32:54;;;;;;;23.48;3.65;;;3.40;85.90;;;;;;5044992;28;20057;-86
2022/01/20 01:35:23;;;;;;;18.10;3.72;;;3.40;85.90;;;;;;5049019;28;20052;-86
2022/01/20 01:40:25;;;;;;;25.27;3.20;;;3.40;85.90;;;;;;5033497;28;20518;-86
2022/01/20 01:42:53;;;;;;;22.95;3.50;;;3.40;85.90;;;;;;5037142;28;20045;-86
2022/01/20 01:45:29;;;;;;;14.23;3.15;;;3.40;85.90;;;;;;5037995;28;20081;-86
2022/01/20 01:47:57;;;;;;;18.27;3.65;;;3.40;85.90;;;;;;5038184;28;20045;-86
2022/01/20 01:50:24;;;;;;;14.73;3.65;;;3.40;85.90;;;;;;5034460;28;20053;-86
2022/01/20 01:52:53;;;;;;;14.75;3.55;;;3.40;85.90;;;;;;5049499;28;20079;-87
2022/01/20 01:55:21;;;;;;;13.05;2.90;;;3.40;85.90;;;;;;5033864;28;20056;-87
2022/01/20 01:57:48;;;;;;;21.95;3.67;;;3.40;85.90;;;;;;5045571;28;20057;-87
2022/01/20 02:00:17;;;;;;;15.18;2.85;;;3.40;85.90;;;;;;5041001;28;20075;-86
2022/01/20 02:02:44;;;;;;;16.23;3.38;;;3.40;85.90;;;;;;5038071;28;20050;-86
2022/01/20 02:05:15;;;;;;;21.00;3.88;;;3.40;85.90;;;;;;5037325;28;20059;-86
2022/01/20 02:18:52;;;;;;;11.63;2.97;;;3.30;85.80;;;;;;5051396;28;20045;-87
2022/01/20 02:21:19;;;;;;;17.95;3.17;;;3.30;85.90;;;;;;5048488;28;20136;-86
2022/01/20 02:23:48;;;;;;;13.45;2.90;;;3.30;85.80;;;;;;5049878;28;20543;-86
2022/01/20 02:26:15;;;;;;;16.63;2.70;;;3.30;85.80;;;;;;5049914;28;20049;-86
2022/01/20 02:28:45;;;;;;;13.80;3.05;;;3.30;85.80;;;;;;5031747;28;20051;-86
2022/01/20 02:31:13;;;;;;;12.13;2.70;;;3.30;85.90;;;;;;5047782;28;20049;-86
2022/01/20 02:33:40;;;;;;;14.38;3.20;;;3.30;85.90;;;;;;5050170;28;20079;-87
2022/01/20 02:36:12;;;;;;;20.15;2.97;;;3.30;85.90;;;;;;5049849;28;20044;-87
2022/01/20 02:38:52;;;;;;;12.98;2.92;;;3.30;85.90;;;;;;5049715;28;20051;-87
2022/01/20 02:46:50;;;;;;;13.15;3.03;;;3.30;85.80;;;;;;5035200;28;20041;-86
2022/01/20 02:49:19;;;;;;;11.98;3.05;;;3.30;85.80;;;;;;5053726;28;20045;-86
2022/01/20 02:51:51;;;;;;;10.82;2.83;;;3.30;85.80;;;;;;5052188;28;20527;-86
2022/01/20 02:54:19;;;;;;;13.18;3.05;;;3.20;85.80;;;;;;5053368;28;20049;-87
2022/01/20 02:56:46;;;;;;;11.07;2.22;;;3.20;85.80;;;;;;5053364;28;20053;-87
2022/01/20 02:59:13;;;;;;;16.55;3.05;;;3.20;85.80;;;;;;5051684;28;20047;-87
2022/01/20 03:01:40;;;;;;;17.58;2.90;;;3.20;85.80;;;;;;5053462;28;20079;-87
2022/01/20 03:04:09;;;;;;;14.57;2.90;;;3.20;85.90;;;;;;5055325;28;20497;-87
2022/01/20 03:06:36;;;;;;;13.23;3.17;;;3.20;85.90;;;;;;5053244;28;20078;-87
2022/01/20 03:09:04;;;;;;;15.18;3.40;;;3.30;85.90;;;;;;5051749;28;20045;-86
2022/01/20 03:11:31;;;;;;;15.48;2.85;;;3.30;85.90;;;;;;5053156;28;20045;-86
2022/01/20 03:13:59;;;;;;;11.27;2.88;;;3.20;85.90;;;;;;5052872;28;20063;-86
2022/01/20 03:16:26;;;;;;;14.45;3.45;;;3.20;85.90;;;;;;5053553;28;20063;-87
2022/01/20 03:18:53;;;;;;;12.35;3.45;;;3.20;85.80;;;;;;5055077;28;20045;-87
2022/01/20 03:21:20;;;;;;;10.18;3.10;;;3.20;85.80;;;;;;5052956;28;20045;-87
2022/01/20 03:23:47;;;;;;;10.85;2.78;;;3.20;85.80;;;;;;5051703;28;20047;-88
2022/01/20 03:26:14;;;;;;;13.82;3.03;;;3.30;85.80;;;;;;5052865;28;20055;-87
2022/01/20 03:28:41;;;;;;;13.45;3.33;;;3.20;85.80;;;;;;5036990;28;20136;-87
2022/01/20 03:31:08;;;;;;;11.70;3.22;;;3.30;85.80;;;;;;5054986;28;20057;-87
2022/01/20 03:33:35;;;;;;;20.27;3.67;;;3.20;85.70;;;;;;5052646;28;20140;-87
2022/01/20 03:36:03;;;;;;;16.88;3.22;;;3.20;85.70;;;;;;5052825;28;20053;-87
2022/01/20 03:38:30;;;;;;;9.80;2.75;;;3.20;85.70;;;;;;5051031;28;20417;-87
2022/01/20 03:40:57;;;;;;;15.52;3.10;;;3.20;85.70;;;;;;5052818;28;20049;-87
2022/01/20 03:43:24;;;;;;;13.68;3.45;;;3.20;85.70;;;;;;5052868;28;20063;-87
2022/01/20 03:45:56;;;;;;;14.95;3.10;;;3.20;85.70;;;;;;5054301;28;20049;-86
2022/01/20 03:48:27;;;;;;;14.63;3.47;;;3.20;85.70;;;;;;5051096;28;20052;-86
2022/01/20 03:51:02;;;;;;;13.43;3.67;;;3.20;85.70;;;;;;5050630;28;20551;-87
2022/01/20 03:53:31;;;;;;;20.02;3.75;;;3.20;85.70;;;;;;5052391;28;20045;-87
2022/01/20 03:55:59;;;;;;;13.10;3.13;;;3.10;85.60;;;;;;5052199;28;20049;-87
2022/01/20 03:58:26;;;;;;;14.30;3.83;;;3.10;85.60;;;;;;5051489;28;20048;-87
2022/01/20 04:00:53;;;;;;;20.70;3.83;;;3.10;85.60;;;;;;5051888;28;20055;-87
2022/01/20 04:03:22;;;;;;;16.92;4.22;;;3.10;85.60;;;;;;5052132;28;20041;-87
2022/01/20 04:05:58;;;;;;;16.38;4.00;;;3.10;85.60;;;;;;5051951;28;20049;-86
2022/01/20 04:08:32;;;;;;;14.48;4.28;;;3.00;85.60;;;;;;5052098;28;20041;-87
2022/01/20 04:11:00;;;;;;;;;;;3.10;85.60;;;;;;5052260;28;20127;-87
2022/01/20 04:13:31;;;;;;;19.17;4.85;;;3.10;85.60;;;;;;5052317;28;19920;-87
2022/01/20 04:16:10;;;;;;;16.98;3.92;;;3.00;85.60;;;;;;5052504;28;20052;-86
2022/01/20 04:18:39;;;;;;;14.13;4.53;;;3.00;85.60;;;;;;5050480;28;20519;-88
2022/01/20 04:21:06;;;;;;;11.93;4.22;;;3.00;85.60;;;;;;5051849;28;20494;-87
2022/01/20 04:23:33;;;;;;;16.95;4.47;;;3.00;85.60;;;;;;5051657;28;20584;-87
2022/01/20 04:26:00;;;;;;;16.48;4.43;;;3.00;85.70;;;;;;5049001;28;20050;-87
2022/01/20 04:28:27;;;;;;;14.68;4.88;;;3.00;85.70;;;;;;5052047;28;20059;-87
2022/01/20 04:30:54;;;;;;;16.00;4.97;;;3.00;85.70;;;;;;5051715;28;20049;-87
2022/01/20 04:33:21;;;;;;;22.42;4.88;;;3.00;85.70;;;;;;5051543;28;20045;-86
2022/01/20 04:35:48;;;;;;;18.60;4.20;;;3.00;85.70;;;;;;5051567;28;20049;-87
2022/01/20 04:38:15;;;;;;;17.27;4.78;;;3.00;85.70;;;;;;5051629;28;20044;-86
2022/01/20 04:40:43;;;;;;;16.17;4.60;;;3.00;85.60;;;;;;5032853;28;20042;-87
2022/01/20 04:43:10;;;;;;;15.07;4.75;;;3.00;85.70;;;;;;5049326;28;20045;-88
2022/01/20 04:45:46;;;;;;;20.85;5.00;;;3.00;85.70;;;;;;5051356;28;20045;-86
2022/01/20 04:59:03;;;;;;;18.20;5.82;;;3.00;85.60;;;;;;5051352;28;20049;-87
2022/01/20 05:01:31;;;;;;;15.75;5.80;;;3.00;85.60;;;;;;5051131;28;20041;-87
2022/01/20 05:04:00;;;;;;;16.08;5.90;;;3.00;85.60;;;;;;5051966;28;20561;-88
2022/01/20 05:06:27;;;;;;;17.77;5.80;;;3.00;85.60;;;;;;5049506;28;20164;-88
2022/01/20 05:08:54;;;;;;;21.42;5.78;;;3.00;85.60;;;;;;5050634;28;20045;-87
2022/01/20 05:11:21;;;;;;;20.83;5.85;;;3.00;85.60;;;;;;5050133;28;20425;-88
2022/01/20 05:13:48;;;;;;;22.67;6.97;;;3.00;85.60;;;;;;5050954;28;20053;-88
2022/01/20 05:16:15;;;;;;;23.63;6.22;;;3.00;85.60;;;;;;5052343;28;20049;-88
2022/01/20 05:18:43;;;;;;;18.23;6.65;;;3.00;85.60;;;;;;5049142;28;20047;-89
2022/01/20 05:21:10;;;;;;;19.23;6.50;;;3.00;85.60;;;;;;5050685;28;20045;-88
2022/01/20 05:23:37;;;;;;;24.05;7.40;;;2.90;85.60;;;;;;5050205;28;20049;-89
2022/01/20 05:26:04;;;;;;;14.00;6.70;;;2.90;85.60;;;;;;5050742;28;20052;-88
2022/01/20 05:28:31;;;;;;;22.05;7.60;;;2.90;85.60;;;;;;5050680;28;20052;-87
2022/01/20 05:30:59;;;;;;;17.55;7.30;;;3.00;85.60;;;;;;5052716;28;20053;-87
2022/01/20 05:33:27;;;;;;;25.85;7.47;;;2.90;85.60;;;;;;5050458;28;20048;-87
2022/01/20 05:35:54;;;;;;;27.25;8.25;;;2.90;85.60;;;;;;5044676;28;20045;-88
2022/01/20 05:38:21;;;;;;;30.02;8.43;;;2.90;85.60;;;;;;5050179;28;20045;-88
2022/01/20 05:40:49;;;;;;;26.05;7.07;;;2.90;85.60;;;;;;5050437;28;20045;-88
2022/01/20 05:43:16;;;;;;;25.05;8.30;;;2.90;85.60;;;;;;5052118;28;20040;-88
2022/01/20 05:45:43;;;;;;;18.75;8.10;;;2.90;85.60;;;;;;5049592;28;20053;-88
2022/01/20 05:48:14;;;;;;;30.38;7.80;;;2.90;85.60;;;;;;5050319;28;20055;-88
2022/01/20 05:50:43;;;;;;;20.88;8.40;;;2.90;85.60;;;;;;5050175;28;20045;-89
2022/01/20 05:53:11;;;;;;;20.15;7.80;;;2.90;85.60;;;;;;5050092;28;20049;-87
2022/01/20 05:55:42;;;;;;;25.67;7.88;;;2.90;85.60;;;;;;5034514;28;20099;-88
2022/01/20 05:58:09;;;;;;;18.58;7.38;;;2.90;85.60;;;;;;5051038;28;20425;-88
2022/01/20 06:00:37;;;;;;;20.85;8.10;;;2.90;85.60;;;;;;5049080;28;20409;-88
2022/01/20 06:05:51;;;;;;;21.63;8.23;;;2.90;85.60;;;;;;5049973;28;20049;-88
2022/01/20 06:08:18;;;;;;;21.02;8.90;;;2.90;85.60;;;;;;5049804;28;20045;-88
2022/01/20 06:10:45;;;;;;;24.95;8.57;;;2.90;85.60;;;;;;5050143;28;20056;-88
2022/01/20 06:13:17;;;;;;;19.90;8.40;;;2.90;85.60;;;;;;5051364;28;20052;-88
2022/01/20 06:15:45;;;;;;;23.02;8.18;;;2.90;85.60;;;;;;5050780;28;20048;-88
2022/01/20 06:18:13;;;;;;;20.08;8.48;;;2.90;85.50;;;;;;5049891;28;20429;-88
2022/01/20 06:20:40;;;;;;;26.70;9.27;;;2.90;85.50;;;;;;5050041;28;20060;-88
2022/01/20 06:23:08;;;;;;;23.55;8.35;;;2.90;85.50;;;;;;5051221;28;20048;-88
2022/01/20 06:25:36;;;;;;;27.05;9.70;;;2.90;85.50;;;;;;5054085;28;20064;-88
2022/01/20 06:28:03;;;;;;;23.80;9.43;;;2.90;85.50;;;;;;5056132;28;20508;-88
2022/01/20 06:30:32;;;;;;;25.95;9.55;;;2.90;85.50;;;;;;5053881;28;20049;-88
2022/01/20 06:33:00;;;;;;;26.00;10.00;;;2.90;85.50;;;;;;5053867;28;20079;-87
2022/01/20 06:35:27;;;;;;;25.00;9.50;;;2.90;85.60;;;;;;5053703;28;20049;-88
2022/01/20 06:37:55;;;;;;;23.77;9.20;;;2.90;85.60;;;;;;5052842;28;20045;-88
2022/01/20 06:40:22;;;;;;;19.88;9.63;;;2.80;85.60;;;;;;5054874;28;20059;-88
2022/01/20 06:42:50;;;;;;;23.23;9.48;;;2.90;85.60;;;;;;5055185;28;20447;-88
2022/01/20 06:45:18;;;;;;;30.75;10.45;;;2.80;85.60;;;;;;5053777;28;20154;-88
2022/01/20 06:47:45;;;;;;;20.30;8.77;;;2.90;85.60;;;;;;5053628;28;20045;-88
2022/01/20 06:50:13;;;;;;;22.52;9.65;;;2.90;85.60;;;;;;5053266;28;20045;-87
2022/01/20 06:52:41;;;;;;;17.58;8.38;;;2.90;85.60;;;;;;5052687;28;20260;-88
2022/01/20 06:55:11;;;;;;;24.02;9.98;;;2.90;85.70;;;;;;5055496;28;20044;-88
2022/01/20 06:57:39;;;;;;;20.70;9.57;;;2.90;85.70;;;;;;5053433;28;20103;-87
2022/01/20 07:00:18;;;;;;;18.38;9.13;;;2.90;85.70;;;;;;5053505;28;20041;-87
2022/01/20 07:02:46;;;;;;;20.75;9.07;;;2.90;85.70;;;;;;5052059;28;20048;-87
2022/01/20 07:05:18;;;;;;;19.08;9.50;;;2.90;85.70;;;;;;5053118;28;20057;-86
2022/01/20 07:07:45;;;;;;;28.63;9.63;;;2.90;85.70;;;;;;5053532;28;20514;-87
2022/01/20 07:10:16;;;;;;;20.35;9.07;;;2.90;85.70;;;;;;5055379;28;20051;-87
2022/01/20 07:12:45;;;;;;;24.48;9.60;;;2.90;85.70;;;;;;5052704;28;20056;-86
2022/01/20 07:15:15;;;;;;;22.58;9.95;;;2.90;85.70;;;;;;5053090;28;20539;-87
2022/01/20 07:17:42;;;;;;;23.55;10.23;;;2.90;85.70;;;;;;5053241;28;20049;-86
2022/01/20 07:20:10;;;;;;;21.27;9.82;;;2.90;85.70;;;;;;5052888;28;20041;-87
2022/01/20 07:22:37;;;;;;;27.30;9.65;;;2.90;85.70;;;;;;5053080;28;20067;-86
2022/01/20 07:25:05;;;;;;;26.25;9.15;;;2.90;85.70;;;;;;5055129;28;20489;-87
2022/01/20 07:27:32;;;;;;;24.50;9.63;;;2.90;85.70;;;;;;5052813;28;20045;-86
2022/01/20 07:30:19;;;;;;;22.15;8.68;;;2.90;85.80;;;;;;5052923;28;20044;-86
2022/01/20 07:32:47;;;;;;;25.75;10.23;;;2.90;85.70;;;;;;5051268;28;20045;-86
2022/01/20 07:35:14;;;;;;;21.90;9.32;;;2.90;85.80;;;;;;5051829;28;20047;-86
2022/01/20 07:37:41;;;;;;;19.92;8.75;;;3.00;85.80;;;;;;5052783;28;20063;-86
2022/01/20 07:40:09;;;;;;;19.98;8.95;;;3.00;85.80;;;;;;5054799;28;20406;-85
2022/01/20 07:42:36;;;;;;;23.33;10.18;;;2.90;85.80;;;;;;5051231;28;20490;-85
2022/01/20 07:45:03;;;;;;;24.95;8.70;;;3.00;85.80;;;;;;5052536;28;20072;-85
2022/01/20 07:47:31;;;;;;;23.80;8.95;;;3.00;85.80;;;;;;5052532;28;20041;-85
2022/01/20 07:49:58;;;;;;;24.50;9.20;;;3.00;85.80;;;;;;5052238;28;20053;-85
2022/01/20 07:52:25;;;;;;;19.27;8.63;;;3.00;85.80;;;;;;5052515;28;20052;-86
2022/01/20 07:54:52;;;;;;;22.75;8.88;;;3.00;85.80;;;;;;5041897;28;20041;-85
2022/01/20 07:57:19;;;;;;;18.42;9.02;;;3.00;85.80;;;;;;5047538;28;20525;-85
2022/01/20 07:59:46;;;;;;;19.45;8.23;;;3.00;85.80;;;;;;5051500;28;20453;-86
2022/01/20 08:02:16;;;;;;;22.45;8.80;;;3.00;85.80;;;;;;5051973;28;20102;-85
2022/01/20 08:04:44;;;;;;;19.05;8.65;;;3.00;85.80;;;;;;5036111;28;20059;-86
2022/01/20 08:07:11;;;;;;;22.70;7.93;;;3.10;85.80;;;;;;5049338;28;20391;-86
2022/01/20 08:09:38;;;;;;;25.75;8.80;;;3.10;85.80;;;;;;5051916;28;20049;-86
2022/01/20 08:12:19;;;;;;;26.60;8.18;;;3.10;85.80;;;;;;5050604;28;20132;-86
2022/01/20 08:14:46;;;;;;;18.65;8.32;;;3.10;85.80;;;;;;5051866;28;20049;-85
2022/01/20 08:17:13;;;;;;;21.27;8.45;;;3.10;85.80;;;;;;5051535;28;20044;-86
2022/01/20 08:19:40;;;;;;;21.30;8.05;;;3.10;85.80;;;;;;5051014;28;20502;-85
2022/01/20 08:22:07;;;;;;;20.77;7.93;;;3.10;85.80;;;;;;5053023;28;20060;-85
2022/01/20 08:24:54;;;;;;;31.20;8.88;;;3.10;85.80;;;;;;5051555;28;20048;-85
2022/01/20 08:27:21;;;;;;;23.50;8.32;;;3.10;85.80;;;;;;5051172;28;20131;-84
2022/01/20 08:29:49;;;;;;;26.42;8.68;;;3.10;85.80;;;;;;5051374;28;20506;-85
2022/01/20 08:32:16;;;;;;;23.15;8.48;;;3.10;85.90;;;;;;5051117;28;20044;-85
2022/01/20 08:34:43;;;;;;;22.85;8.43;;;3.10;85.80;;;;;;5051198;28;20422;-84
2022/01/20 08:37:10;;;;;;;23.70;8.80;;;3.20;85.90;;;;;;5049149;28;20497;-85
2022/01/20 08:42:05;;;;;;;24.27;8.65;;;3.20;85.90;;;;;;5051146;28;20049;-85
2022/01/20 08:44:32;;;;;;;24.38;9.10;;;3.20;85.90;;;;;;5050928;28;20037;-85
2022/01/20 08:47:01;;;;;;;27.05;9.65;;;3.20;85.90;;;;;;5049777;28;20063;-85
2022/01/20 08:49:29;;;;;;;23.80;8.32;;;3.20;85.90;;;;;;5050813;28;20045;-84
2022/01/20 08:51:57;;;;;;;32.55;9.23;;;3.20;86.00;;;;;;5051357;28;20059;-85
2022/01/20 08:54:24;;;;;;;27.33;8.57;;;3.30;86.00;;;;;;5050906;28;20041;-85
2022/01/20 08:56:53;;;;;;;21.15;8.30;;;3.30;86.00;;;;;;5050545;28;20055;-84
2022/01/20 08:59:20;;;;;;;30.60;8.88;;;3.30;86.00;;;;;;5049713;28;20052;-85
2022/01/20 09:01:47;;;;;;;23.00;8.93;;;3.30;86.00;;;;;;5050648;28;20052;-85
2022/01/20 09:04:14;;;;;;;23.15;8.07;;;3.30;86.00;;;;;;5052197;28;20524;-85
2022/01/20 09:06:41;;;;;;;21.30;8.10;;;3.30;86.00;;;;;;5051246;28;20056;-85
2022/01/20 09:09:08;;;;;;;19.58;8.27;;;3.30;86.10;;;;;;5050656;28;20055;-85
2022/01/20 09:11:39;;;;;;;26.63;8.35;;;3.40;86.10;;;;;;5050380;28;20049;-85
2022/01/20 09:16:51;;;;;;;19.13;8.25;;;3.40;86.10;;;;;;5035620;28;20522;-85
2022/01/20 09:19:18;;;;;;;20.90;7.88;;;3.40;86.10;;;;;;5051640;28;20045;-85
2022/01/20 09:21:45;;;;;;;19.58;7.55;;;3.40;86.10;;;;;;5051183;28;20051;-85
2022/01/20 09:24:12;;;;;;;23.88;8.07;;;3.40;86.10;;;;;;5050550;28;20498;-85
2022/01/20 09:26:39;;;;;;;19.63;8.00;;;3.40;86.10;;;;;;5049988;28;20049;-85
2022/01/20 09:29:06;;;;;;;20.27;7.45;;;3.40;86.10;;;;;;5050633;28;20051;-85
2022/01/20 09:31:38;;;;;;;22.73;8.02;;;3.50;86.20;;;;;;5049960;28;20513;-85
2022/01/20 09:34:05;;;;;;;23.10;8.27;;;3.50;86.20;;;;;;5051998;28;20409;-84
2022/01/20 09:36:32;;;;;;;31.00;8.35;;;3.50;86.20;;;;;;5050233;28;20053;-84
2022/01/20 09:38:59;;;;;;;23.40;8.18;;;3.50;86.20;;;;;;5044492;28;20067;-85
2022/01/20 09:41:26;;;;;;;21.75;7.63;;;3.60;86.20;;;;;;5050039;28;20505;-85
2022/01/20 09:43:54;;;;;;;21.48;8.02;;;3.60;86.20;;;;;;5049685;28;20535;-84
2022/01/20 09:46:21;;;;;;;21.10;7.88;;;3.60;86.20;;;;;;5051460;28;20053;-85
2022/01/20 09:48:48;;;;;;;18.92;8.05;;;3.60;86.30;;;;;;5050824;28;20371;-84
2022/01/20 09:51:15;;;;;;;18.15;7.00;;;3.70;86.30;;;;;;5050166;28;20045;-84
2022/01/20 09:53:43;;;;;;;17.38;7.32;;;3.70;86.30;;;;;;5049803;28;20047;-85
2022/01/20 09:56:13;;;;;;;16.17;7.38;;;3.70;86.20;;;;;;5049785;28;20047;-85
2022/01/20 09:58:40;;;;;;;15.90;7.55;;;3.70;86.30;;;;;;5049288;28;20053;-86
2022/01/20 10:01:07;;;;;;;21.42;7.20;;;3.80;86.30;;;;;;5051813;28;20054;-85
2022/01/20 10:03:37;;;;;;;19.48;7.57;;;3.80;86.30;;;;;;5049492;28;20052;-85
2022/01/20 10:06:05;;;;;;;18.98;7.03;;;3.90;86.30;;;;;;5048380;28;20509;-85
2022/01/20 10:08:35;;;;;;;15.52;6.65;;;3.90;86.30;;;;;;5048119;28;20051;-85
2022/01/20 10:11:09;;;;;;;13.68;6.25;;;3.90;86.20;;;;;;5049619;28;20055;-85
2022/01/20 10:13:38;;;;;;;13.30;6.35;;;3.90;86.20;;;;;;5048389;28;20088;-85
2022/01/20 10:16:10;;;;;;;22.42;7.15;;;4.00;86.20;;;;;;5051939;28;20045;-85
2022/01/20 10:18:57;;;;;;;17.23;6.35;;;4.00;86.20;;;;;;5047881;28;20419;-85
2022/01/20 10:21:32;;;;;;;15.25;6.40;;;4.00;86.20;;;;;;5049703;28;20655;-85
2022/01/20 10:24:10;;;;;;;22.33;7.20;;;4.00;86.20;;;;;;5049761;28;20061;-85
2022/01/20 10:26:39;;;;;;;21.90;6.88;;;4.10;86.20;;;;;;5049219;28;20657;-85
2022/01/20 10:29:08;;;;;;;14.75;6.18;;;4.10;86.20;;;;;;5047928;28;20045;-85
2022/01/20 10:31:41;;;;;;;17.75;6.80;;;4.20;86.20;;;;;;5049466;28;20060;-85
2022/01/20 10:34:35;;;;;;;13.73;6.05;;;4.20;86.10;;;;;;5047476;28;20049;-86
2022/01/20 10:37:14;;;;;;;12.52;6.05;;;4.20;86.20;;;;;;5050417;28;20115;-85
2022/01/20 10:39:45;;;;;;;13.50;5.65;;;4.20;86.20;;;;;;5049907;28;20045;-85
2022/01/20 10:42:16;;;;;;;12.35;6.13;;;4.30;86.10;;;;;;5048817;28;20420;-85
2022/01/20 10:44:54;;;;;;;18.17;6.10;;;4.30;86.10;;;;;;5047820;28;20045;-86
2022/01/20 10:47:26;;;;;;;12.13;5.75;;;4.30;86.10;;;;;;5049789;28;20052;-85
2022/01/20 10:49:54;;;;;;;14.82;6.03;;;4.40;86.10;;;;;;5049388;28;20041;-86
2022/01/20 10:52:24;;;;;;;18.52;6.32;;;4.40;86.10;;;;;;5050602;28;20128;-86
2022/01/20 10:54:53;;;;;;;14.65;5.72;;;4.40;86.00;;;;;;5050857;28;20422;-86
2022/01/20 10:57:34;;;;;;;17.63;5.95;;;4.40;86.00;;;;;;5047251;28;20513;-85
2022/01/20 11:00:08;;;;;;;17.58;5.72;;;4.40;86.00;;;;;;5049296;28;20045;-86
2022/01/20 11:02:35;;;;;;;15.45;6.13;;;4.50;86.00;;;;;;5048991;28;20049;-85
2022/01/20 11:05:03;;;;;;;19.23;5.65;;;4.50;85.90;;;;;;5049257;28;20065;-86
2022/01/20 11:07:30;;;;;;;13.77;5.07;;;4.50;85.90;;;;;;5049263;28;20514;-86
2022/01/20 11:10:06;;;;;;;15.45;5.47;;;4.50;85.90;;;;;;5053188;28;20059;-86
2022/01/20 11:12:36;;;;;;;16.60;5.78;;;4.50;85.90;;;;;;5052306;28;20061;-86
2022/01/20 11:15:08;;;;;;;14.63;4.70;;;4.60;85.90;;;;;;5052970;28;20135;-86
2022/01/20 11:17:36;;;;;;;18.02;5.72;;;4.60;85.80;;;;;;5052646;28;20114;-86
2022/01/20 11:20:08;;;;;;;17.23;5.18;;;4.60;85.80;;;;;;5052985;28;20047;-86
2022/01/20 11:22:36;;;;;;;12.73;4.28;;;4.60;85.80;;;;;;5051417;28;20061;-86
2022/01/20 11:25:10;;;;;;;14.57;5.00;;;4.60;85.70;;;;;;5054523;28;20413;-86
2022/01/20 11:27:42;;;;;;;15.38;5.20;;;4.60;85.70;;;;;;5050700;28;20045;-86
2022/01/20 11:30:14;;;;;;;12.60;4.30;;;4.70;85.70;;;;;;5052692;28;20052;-86
2022/01/20 11:32:42;;;;;;;17.55;4.78;;;4.70;85.70;;;;;;5052010;28;20047;-86
2022/01/20 11:35:10;;;;;;;14.40;5.22;;;4.70;85.60;;;;;;5051196;28;20041;-86
2022/01/20 11:37:40;;;;;;;17.13;4.68;;;4.70;85.60;;;;;;5052495;28;20041;-86
2022/01/20 11:40:12;;;;;;;12.80;4.70;;;4.70;85.60;;;;;;5054124;28;20071;-86
2022/01/20 11:42:40;;;;;;;14.55;4.95;;;4.70;85.60;;;;;;5052152;28;20476;-86
2022/01/20 11:45:28;;;;;;;13.10;4.32;;;4.70;85.60;;;;;;5052250;28;20132;-91
2022/01/20 11:47:56;;;;;;;13.43;4.40;;;4.70;85.50;;;;;;5051990;28;20537;-92
2022/01/20 11:50:23;;;;;;;14.95;4.15;;;4.80;85.60;;;;;;5052085;28;20453;-88
2022/01/20 11:52:50;;;;;;;13.73;4.40;;;4.80;85.50;;;;;;5052352;28;20056;-89
2022/01/20 11:55:28;;;;;;;15.02;3.63;;;4.80;85.60;;;;;;5051971;28;20044;-89
2022/01/20 11:57:55;;;;;;;16.70;4.10;;;4.80;85.60;;;;;;5052018;28;20075;-89
2022/01/20 12:00:28;;;;;;;13.20;3.78;;;4.90;85.60;;;;;;5050740;28;20044;-89
2022/01/20 12:02:55;;;;;;;12.88;3.53;;;4.90;85.60;;;;;;5050200;28;20044;-89
2022/01/20 12:05:29;;;;;;;12.18;3.25;;;5.00;85.70;;;;;;5050740;28;20071;-89
2022/01/20 12:08:19;;;;;;;14.25;3.45;;;5.00;85.70;;;;;;5048817;28;20506;-89
2022/01/20 12:11:05;;;;;;;9.73;3.30;;;5.10;85.70;;;;;;5036311;28;20041;-88
2022/01/20 12:13:32;;;;;;;12.45;3.10;;;5.20;85.70;;;;;;5052406;28;20053;-90
2022/01/20 12:16:02;;;;;;;11.52;2.90;;;5.30;85.70;;;;;;5052291;28;20048;-88
2022/01/20 12:18:30;;;;;;;12.05;2.83;;;5.40;85.60;;;;;;5051416;28;20052;-89
2022/01/20 12:21:04;;;;;;;14.52;3.20;;;5.40;85.60;;;;;;5051411;28;20533;-89
2022/01/20 12:23:41;;;;;;;10.07;2.40;;;5.50;85.40;;;;;;5051195;28;20051;-89
2022/01/20 12:26:08;;;;;;;9.18;2.33;;;5.50;85.30;;;;;;5050469;28;20052;-91
2022/01/20 12:28:35;;;;;;;9.55;2.45;;;5.60;85.30;;;;;;5051479;28;20096;-88
2022/01/20 12:31:06;;;;;;;8.70;2.50;;;5.60;85.10;;;;;;5053570;28;20052;-89
2022/01/20 12:33:35;;;;;;;12.80;2.17;;;5.60;85.00;;;;;;5049772;28;20056;-87
2022/01/20 12:36:04;;;;;;;15.07;2.83;;;5.70;84.90;;;;;;5051601;28;20164;-88
2022/01/20 12:38:34;;;;;;;13.32;2.30;;;5.70;84.80;;;;;;5049495;28;20053;-90
2022/01/20 12:41:22;;;;;;;10.48;2.47;;;5.80;84.70;;;;;;5050062;28;20087;-90
2022/01/20 12:44:07;;;;;;;9.32;2.25;;;5.80;84.60;;;;;;5035869;28;20051;-87
2022/01/20 12:46:39;;;;;;;12.82;2.70;;;5.80;84.50;;;;;;5049635;28;20080;-88
2022/01/20 12:49:09;;;;;;;12.05;2.65;;;5.90;84.30;;;;;;5053189;28;20464;-88
2022/01/20 12:51:45;;;;;;;9.38;2.03;;;5.90;84.20;;;;;;5051058;28;20052;-88
2022/01/20 12:54:29;;;;;;;11.65;2.38;;;5.90;84.00;;;;;;5049041;28;20513;-88
2022/01/20 12:57:12;;;;;;;10.30;2.17;;;5.90;83.80;;;;;;5049649;28;20418;-89
2022/01/20 12:59:42;;;;;;;11.13;1.77;;;5.80;83.60;;;;;;5049938;28;20080;-89
2022/01/20 13:02:19;;;;;;;12.30;1.83;;;5.80;83.40;;;;;;5050526;28;20044;-89
2022/01/20 13:04:47;;;;;;;12.02;2.15;;;5.80;83.20;;;;;;5035393;28;20136;-89
2022/01/20 13:07:17;;;;;;;6.93;1.83;;;5.70;83.10;;;;;;5052289;28;20445;-88
2022/01/20 13:09:48;;;;;;;7.63;1.88;;;5.70;83.00;;;;;;5049920;28;20049;-88
2022/01/20 13:12:17;;;;;;;7.63;1.80;;;5.60;82.80;;;;;;5049341;28;20044;-89
2022/01/20 13:14:45;;;;;;;10.40;2.05;;;5.60;82.80;;;;;;5049317;28;20048;-88
2022/01/20 13:17:19;;;;;;;10.05;2.00;;;5.60;82.80;;;;;;5049109;28;20131;-89
2022/01/20 13:19:48;;;;;;;9.43;1.98;;;5.50;82.80;;;;;;5035292;28;20540;-88
2022/01/20 13:22:53;;;;;;;12.88;2.13;;;5.50;82.80;;;;;;5050978;28;20152;-88
2022/01/20 13:25:25;;;;;;;10.15;1.20;;;5.40;82.70;;;;;;5048673;28;20052;-88
2022/01/20 13:28:05;;;;;;;11.90;1.92;;;5.40;82.80;;;;;;5050840;28;20045;-88
2022/01/20 13:30:47;;;;;;;13.15;1.63;;;5.40;82.80;;;;;;5050200;28;20053;-89
2022/01/20 13:33:25;;;;;;;7.25;1.60;;;5.30;82.90;;;;;;5048030;28;20476;-89
2022/01/20 13:36:00;;;;;;;8.18;1.77;;;5.30;82.90;;;;;;5048737;28;20049;-89
2022/01/20 13:38:31;;;;;;;11.45;1.70;;;5.20;82.90;;;;;;5048561;28;20056;-89
2022/01/20 13:41:08;;;;;;;8.63;1.70;;;5.20;83.00;;;;;;5050200;28;20428;-88
2022/01/20 13:46:43;;;;;;;7.95;1.95;;;5.20;83.10;;;;;;5049667;28;20041;-88
2022/01/20 13:49:19;;;;;;;7.78;1.83;;;5.20;83.10;;;;;;5052086;28;20552;-90
2022/01/20 13:51:58;;;;;;;10.60;1.90;;;5.10;83.10;;;;;;5048216;28;20484;-88
2022/01/20 13:54:42;;;;;;;10.02;2.20;;;5.20;83.20;;;;;;5049393;28;20433;-89
2022/01/20 13:57:37;;;;;;;11.15;2.22;;;5.10;83.20;;;;;;5048787;28;20052;-88
2022/01/20 14:00:07;;;;;;;9.32;2.33;;;5.00;83.20;;;;;;5047822;28;20127;-90
2022/01/20 14:02:34;;;;;;;9.48;2.10;;;5.00;83.30;;;;;;5048138;28;20045;-88
2022/01/20 14:05:02;;;;;;;9.13;2.00;;;5.00;83.30;;;;;;5049425;28;21912;-88
2022/01/20 14:07:30;;;;;;;8.15;1.95;;;5.00;83.30;;;;;;5050080;28;20045;-89
2022/01/20 14:09:57;;;;;;;13.05;2.00;;;5.00;83.40;;;;;;5049807;28;20052;-89
2022/01/20 14:12:24;;;;;;;9.65;1.98;;;5.00;83.40;;;;;;5047021;28;20057;-89
2022/01/20 14:14:51;;;;;;;9.48;2.22;;;5.00;83.50;;;;;;5049926;28;20041;-89
2022/01/20 14:17:20;;;;;;;7.57;2.10;;;4.90;83.50;;;;;;5049549;28;20052;-88